createdAt,value
2024-02-06T00:01:52.645Z,98867.41
2024-02-06T00:04:19.913Z,98873.16
2024-02-06T00:06:46.547Z,98838.66
2024-02-06T00:09:13.134Z,98855.41
2024-02-06T00:11:39.895Z,98849.84
2024-02-06T00:14:06.827Z,98832.56
2024-02-06T00:16:34.185Z,98856.25
2024-02-06T00:19:02.911Z,98848.66
2024-02-06T00:21:29.506Z,98857.91
2024-02-06T00:23:56.016Z,98868.75
2024-02-06T00:26:22.767Z,98848.50
2024-02-06T00:28:49.349Z,98870.44
2024-02-06T00:31:16.207Z,98867.56
2024-02-06T00:33:42.889Z,98869.94
2024-02-06T00:36:09.398Z,98837.47
2024-02-06T00:38:36.081Z,98862.97
2024-02-06T00:41:02.611Z,98851.81
2024-02-06T00:43:29.469Z,98848.25
2024-02-06T00:45:56.010Z,98856.22
2024-02-06T00:48:22.797Z,98866.03
2024-02-06T00:50:49.738Z,98844.69
2024-02-06T00:53:16.425Z,98837.63
2024-02-06T00:55:43.049Z,98861.78
2024-02-06T00:58:09.997Z,98863.63
2024-02-06T01:00:37.634Z,98860.09
2024-02-06T01:03:04.339Z,98849.31
2024-02-06T01:05:30.869Z,98856.22
2024-02-06T01:07:59.261Z,98855.69
2024-02-06T01:10:26.020Z,98851.16
2024-02-06T01:12:52.631Z,98850.13
2024-02-06T01:15:19.453Z,98858.22
2024-02-06T01:17:46.033Z,98835.09
2024-02-06T01:20:12.870Z,98842.50
2024-02-06T01:22:39.665Z,98850.31
2024-02-06T01:25:06.367Z,98844.84
2024-02-06T01:27:32.985Z,98841.66
2024-02-06T01:29:59.524Z,98846.38
2024-02-06T01:32:26.067Z,98836.06
2024-02-06T01:34:52.738Z,98820.88
2024-02-06T01:37:19.365Z,98845.53
2024-02-06T01:39:46.004Z,98838.09
2024-02-06T01:42:12.520Z,98820.69
2024-02-06T01:44:39.101Z,98843.38
2024-02-06T01:47:08.815Z,98839.78
2024-02-06T01:49:36.845Z,98838.63
2024-02-06T01:52:05.828Z,98813.72
2024-02-06T01:54:32.407Z,98804.09
2024-02-06T01:56:59.259Z,98829.47
2024-02-06T01:59:26.454Z,98824.06
2024-02-06T02:01:53.880Z,98814.13
2024-02-06T02:04:20.674Z,98825.44
2024-02-06T02:06:47.970Z,98830.69
2024-02-06T02:09:14.714Z,98800.56
2024-02-06T02:11:41.254Z,98818.97
2024-02-06T02:14:08.516Z,98810.31
2024-02-06T02:16:35.251Z,98830.31
2024-02-06T02:19:02.011Z,98824.34
2024-02-06T02:21:30.711Z,98829.31
2024-02-06T02:23:57.440Z,98815.06
2024-02-06T02:26:24.724Z,98832.31
2024-02-06T02:28:52.494Z,98819.97
2024-02-06T02:31:21.664Z,98808.28
2024-02-06T02:33:48.554Z,98833.47
2024-02-06T02:36:15.970Z,98806.94
2024-02-06T02:38:43.445Z,98830.22
2024-02-06T02:41:10.075Z,98806.25
2024-02-06T02:43:36.747Z,98800.22
2024-02-06T02:46:03.818Z,98798.28
2024-02-06T02:48:30.598Z,98801.50
2024-02-06T02:50:57.191Z,98790.75
2024-02-06T02:53:23.792Z,98804.06
2024-02-06T02:55:50.350Z,98795.47
2024-02-06T02:58:17.663Z,98802.66
2024-02-06T03:00:44.377Z,98809.13
2024-02-06T03:03:10.986Z,98778.66
2024-02-06T03:05:39.052Z,98811.84
2024-02-06T03:08:06.069Z,98800.50
2024-02-06T03:10:32.599Z,98784.38
2024-02-06T03:12:59.182Z,98801.03
2024-02-06T03:15:26.946Z,98791.00
2024-02-06T03:17:55.574Z,98802.66
2024-02-06T03:20:22.448Z,98803.69
2024-02-06T03:22:49.792Z,98797.13
2024-02-06T03:25:16.787Z,98795.41
2024-02-06T03:27:44.675Z,98793.28
2024-02-06T03:30:11.953Z,98800.34
2024-02-06T03:32:39.491Z,98801.72
2024-02-06T03:35:08.426Z,98792.25
2024-02-06T03:37:35.607Z,98785.66
2024-02-06T03:40:02.403Z,98782.47
2024-02-06T03:42:29.028Z,98783.16
2024-02-06T03:44:56.730Z,98787.56
2024-02-06T03:47:23.261Z,98760.19
2024-02-06T03:49:50.078Z,98803.16
2024-02-06T03:52:16.725Z,98782.69
2024-02-06T03:54:43.251Z,98762.09
2024-02-06T03:57:11.449Z,98789.47
2024-02-06T03:59:37.953Z,98795.22
2024-02-06T04:02:04.882Z,98752.28
2024-02-06T04:04:31.728Z,98768.34
2024-02-06T04:06:58.401Z,98780.50
2024-02-06T04:09:25.079Z,98790.41
2024-02-06T04:11:51.637Z,98789.56
2024-02-06T04:14:18.189Z,98798.00
2024-02-06T04:16:45.679Z,98788.03
2024-02-06T04:19:12.796Z,98792.75
2024-02-06T04:21:39.689Z,98772.00
2024-02-06T04:24:07.298Z,98777.22
2024-02-06T04:26:33.891Z,98789.56
2024-02-06T04:29:00.459Z,98779.38
2024-02-06T04:31:27.064Z,98773.59
2024-02-06T04:33:53.799Z,98767.59
2024-02-06T04:36:22.066Z,98780.81
2024-02-06T04:38:48.590Z,98775.72
2024-02-06T04:41:15.119Z,98769.47
2024-02-06T04:43:41.747Z,98782.00
2024-02-06T04:46:08.919Z,98774.91
2024-02-06T04:48:35.570Z,98782.13
2024-02-06T04:51:02.105Z,98771.00
2024-02-06T04:53:29.227Z,98768.91
2024-02-06T04:55:55.811Z,98772.19
2024-02-06T04:58:22.510Z,98773.47
2024-02-06T05:00:49.097Z,98740.63
2024-02-06T05:03:15.643Z,98749.69
2024-02-06T05:05:42.155Z,98775.34
2024-02-06T05:08:10.306Z,98771.16
2024-02-06T05:10:37.113Z,98750.88
2024-02-06T05:13:03.764Z,98756.63
2024-02-06T05:15:30.366Z,98742.47
2024-02-06T05:17:56.965Z,98748.03
2024-02-06T05:20:23.502Z,98759.13
2024-02-06T05:22:50.019Z,98757.13
2024-02-06T05:25:16.984Z,98732.13
2024-02-06T05:27:44.110Z,98752.56
2024-02-06T05:30:11.614Z,98724.00
2024-02-06T05:32:38.290Z,98751.75
2024-02-06T05:35:05.743Z,98738.56
2024-02-06T05:37:32.729Z,98752.69
2024-02-06T05:39:59.581Z,98741.41
2024-02-06T05:42:26.225Z,98729.06
2024-02-06T05:44:52.730Z,98739.41
2024-02-06T05:47:19.250Z,98743.97
2024-02-06T05:49:46.158Z,98741.94
2024-02-06T05:52:12.948Z,98735.66
2024-02-06T05:54:39.638Z,98741.78
2024-02-06T05:57:06.305Z,98734.97
2024-02-06T05:59:33.569Z,98726.06
2024-02-06T06:02:00.334Z,98727.50
2024-02-06T06:04:30.535Z,98733.97
2024-02-06T06:06:57.805Z,98728.03
2024-02-06T06:09:24.518Z,98723.84
2024-02-06T06:11:51.126Z,98721.44
2024-02-06T06:14:17.667Z,98720.06
2024-02-06T06:16:44.275Z,98731.91
2024-02-06T06:19:10.940Z,98714.50
2024-02-06T06:21:39.841Z,98720.53
2024-02-06T06:24:09.800Z,98717.50
2024-02-06T06:26:38.278Z,98729.38
2024-02-06T06:29:04.952Z,98730.53
2024-02-06T06:31:31.691Z,98709.31
2024-02-06T06:33:58.392Z,98722.03
2024-02-06T06:36:25.372Z,98722.06
2024-02-06T06:38:52.193Z,98699.06
2024-02-06T06:41:19.200Z,98739.50
2024-02-06T06:43:45.953Z,98732.50
2024-02-06T06:46:12.664Z,98705.94
2024-02-06T06:48:39.551Z,98720.72
2024-02-06T06:51:06.122Z,98710.28
2024-02-06T06:53:32.663Z,98714.16
2024-02-06T06:55:59.666Z,98701.19
2024-02-06T06:58:26.293Z,98701.19
2024-02-06T07:00:54.391Z,98707.22
2024-02-06T07:03:21.327Z,98711.47
2024-02-06T07:05:52.389Z,98714.16
2024-02-06T07:08:19.171Z,98717.06
2024-02-06T07:10:45.775Z,98701.16
2024-02-06T07:13:12.736Z,98714.09
2024-02-06T07:15:39.348Z,98716.22
2024-02-06T07:18:06.293Z,98725.00
2024-02-06T07:20:32.839Z,98730.72
2024-02-06T07:22:59.408Z,98711.38
2024-02-06T07:25:26.745Z,98721.19
2024-02-06T07:27:53.316Z,98726.75
2024-02-06T07:30:27.704Z,98721.00
2024-02-06T07:33:00.854Z,98716.59
2024-02-06T07:35:27.533Z,98711.69
2024-02-06T07:37:54.330Z,98723.72
2024-02-06T07:40:20.901Z,98710.22
2024-02-06T07:42:50.810Z,98718.13
2024-02-06T07:45:17.414Z,98724.59
2024-02-06T07:47:45.071Z,98720.81
2024-02-06T07:50:11.875Z,98714.44
2024-02-06T07:52:38.685Z,98723.91
2024-02-06T07:55:05.940Z,98709.41
2024-02-06T07:57:32.533Z,98723.78
2024-02-06T07:59:59.111Z,98717.63
2024-02-06T08:02:25.799Z,98712.94
2024-02-06T08:04:55.475Z,98722.75
2024-02-06T08:07:26.939Z,98716.34
2024-02-06T08:09:53.753Z,98703.84
2024-02-06T08:12:20.351Z,98717.50
2024-02-06T08:14:46.869Z,98723.41
2024-02-06T08:17:14.840Z,98729.66
2024-02-06T08:19:41.398Z,98701.13
2024-02-06T08:22:08.042Z,98697.09
2024-02-06T08:24:34.902Z,98705.34
2024-02-06T08:27:02.655Z,98707.06
2024-02-06T08:29:29.920Z,98685.28
2024-02-06T08:31:56.707Z,98693.88
2024-02-06T08:34:23.829Z,98675.50
2024-02-06T08:36:50.585Z,98686.31
2024-02-06T08:39:17.141Z,98665.03
2024-02-06T08:41:43.649Z,98678.03
2024-02-06T08:44:10.219Z,98679.75
2024-02-06T08:46:37.319Z,98686.34
2024-02-06T08:49:04.194Z,98661.84
2024-02-06T08:51:31.797Z,98654.94
2024-02-06T08:53:59.490Z,98666.59
2024-02-06T08:56:26.345Z,98677.56
2024-02-06T08:58:52.974Z,98683.13
2024-02-06T09:01:23.681Z,98654.75
2024-02-06T09:03:52.522Z,98672.00
2024-02-06T09:06:20.755Z,98667.75
2024-02-06T09:08:48.003Z,98662.22
2024-02-06T09:11:14.702Z,98679.72
2024-02-06T09:13:43.442Z,98677.38
2024-02-06T09:16:10.880Z,98675.84
2024-02-06T09:18:37.759Z,98680.09
2024-02-06T09:21:04.437Z,98676.69
2024-02-06T09:23:31.266Z,98673.53
2024-02-06T09:25:59.987Z,98669.59
2024-02-06T09:28:28.786Z,98670.13
2024-02-06T09:30:55.464Z,98660.00
2024-02-06T09:33:22.000Z,98660.47
2024-02-06T09:35:48.602Z,98657.97
2024-02-06T09:38:15.130Z,98648.66
2024-02-06T09:40:44.325Z,98661.63
2024-02-06T09:43:11.587Z,98641.72
2024-02-06T09:45:38.367Z,98661.50
2024-02-06T09:48:05.339Z,98655.25
2024-02-06T09:50:31.910Z,98652.06
2024-02-06T09:53:01.151Z,98665.53
2024-02-06T09:55:28.227Z,98668.38
2024-02-06T09:57:55.526Z,98658.63
2024-02-06T10:00:23.561Z,98689.69
2024-02-06T10:02:54.019Z,98678.03
2024-02-06T10:05:24.680Z,98687.31
2024-02-06T10:07:51.336Z,98675.84
2024-02-06T10:10:19.806Z,98668.97
2024-02-06T10:12:46.699Z,98678.16
2024-02-06T10:15:28.244Z,98666.28
2024-02-06T10:17:57.344Z,98664.84
2024-02-06T10:20:24.019Z,98651.03
2024-02-06T10:22:51.652Z,98662.31
2024-02-06T10:25:18.987Z,98642.72
2024-02-06T10:27:45.815Z,98656.50
2024-02-06T10:30:12.768Z,98646.53
2024-02-06T10:32:42.951Z,98649.06
2024-02-06T10:35:10.677Z,98637.63
2024-02-06T10:37:39.053Z,98643.03
2024-02-06T10:40:12.827Z,98642.34
2024-02-06T10:45:18.113Z,98637.19
2024-02-06T10:47:46.680Z,98625.72
2024-02-06T10:50:14.253Z,98628.00
2024-02-06T10:52:41.133Z,98612.28
2024-02-06T10:55:09.048Z,98630.06
2024-02-06T10:57:40.056Z,98624.63
2024-02-06T11:00:16.390Z,98614.88
2024-02-06T11:02:47.930Z,98621.78
2024-02-06T11:05:29.547Z,98605.91
2024-02-06T11:08:30.805Z,98605.19
2024-02-06T11:11:03.201Z,98592.19
2024-02-06T11:13:34.735Z,98605.28
2024-02-06T11:16:06.760Z,98597.94
2024-02-06T11:18:41.468Z,98585.84
2024-02-06T11:21:11.580Z,98577.06
2024-02-06T11:23:40.140Z,98561.38
2024-02-06T11:26:07.715Z,98582.03
2024-02-06T11:28:35.243Z,98573.56
2024-02-06T11:31:04.791Z,98553.00
2024-02-06T11:33:37.634Z,98579.03
2024-02-06T11:36:10.822Z,98566.16
2024-02-06T11:38:39.545Z,98558.13
2024-02-06T11:41:14.265Z,98555.47
2024-02-06T11:43:42.066Z,98560.88
2024-02-06T11:46:08.874Z,98557.94
2024-02-06T11:48:35.833Z,98555.19
2024-02-06T11:51:03.762Z,98557.38
2024-02-06T11:53:31.460Z,98562.75
2024-02-06T11:56:03.047Z,98538.38
2024-02-06T11:58:29.793Z,98554.00
2024-02-06T12:00:57.998Z,98542.63
2024-02-06T12:03:24.612Z,98552.00
2024-02-06T12:05:51.525Z,98551.13
2024-02-06T12:08:21.964Z,98534.34
2024-02-06T12:10:49.398Z,98537.84
2024-02-06T12:13:16.361Z,98536.44
2024-02-06T12:15:43.136Z,98533.59
2024-02-06T12:18:16.768Z,98533.38
2024-02-06T12:20:44.034Z,98535.53
2024-02-06T12:23:13.067Z,98534.28
2024-02-06T12:25:42.261Z,98531.94
2024-02-06T12:28:35.939Z,98533.31
2024-02-06T12:31:02.891Z,98498.91
2024-02-06T12:33:35.109Z,98523.97
2024-02-06T12:36:04.008Z,98532.22
2024-02-06T12:38:30.569Z,98540.84
2024-02-06T12:41:01.912Z,98533.13
2024-02-06T12:43:28.657Z,98517.38
2024-02-06T12:45:55.593Z,98503.66
2024-02-06T12:48:22.588Z,98493.88
2024-02-06T12:50:49.915Z,98513.78
2024-02-06T12:53:25.049Z,98519.66
2024-02-06T12:55:52.309Z,98521.75
2024-02-06T12:58:22.389Z,98516.69
2024-02-06T13:01:00.702Z,98507.63
2024-02-06T13:03:29.803Z,98498.91
2024-02-06T13:05:58.193Z,98496.88
2024-02-06T13:08:31.473Z,98491.34
2024-02-06T13:11:11.121Z,98494.78
2024-02-06T13:13:37.723Z,98491.09
2024-02-06T13:16:07.095Z,98464.03
2024-02-06T13:18:37.402Z,98510.75
2024-02-06T13:21:09.178Z,98488.47
2024-02-06T13:23:37.602Z,98501.50
2024-02-06T13:26:04.756Z,98498.25
2024-02-06T13:28:31.600Z,98478.66
2024-02-06T13:30:58.612Z,98475.63
2024-02-06T13:33:25.435Z,98463.56
2024-02-06T13:35:54.723Z,98455.88
2024-02-06T13:38:21.392Z,98458.22
2024-02-06T13:40:48.618Z,98442.53
2024-02-06T13:43:15.478Z,98429.06
2024-02-06T13:45:42.140Z,98445.16
2024-02-06T13:48:08.883Z,98449.19
2024-02-06T13:50:35.583Z,98438.75
2024-02-06T13:53:03.474Z,98457.78
2024-02-06T13:55:33.953Z,98458.84
2024-02-06T13:58:02.112Z,98452.41
2024-02-06T14:00:28.951Z,98439.72
2024-02-06T14:02:55.855Z,98451.91
2024-02-06T14:05:24.692Z,98450.00
2024-02-06T14:07:53.327Z,98457.53
2024-02-06T14:10:20.187Z,98445.38
2024-02-06T14:12:50.482Z,98438.63
2024-02-06T14:15:18.601Z,98426.44
2024-02-06T14:17:47.569Z,98421.53
2024-02-06T14:20:16.174Z,98414.72
2024-02-06T14:22:44.003Z,98389.13
2024-02-06T14:25:11.070Z,98395.25
2024-02-06T14:27:37.691Z,98400.28
2024-02-06T14:30:05.490Z,98405.91
2024-02-06T14:32:32.052Z,98412.72
2024-02-06T14:34:58.631Z,98403.53
2024-02-06T14:37:25.335Z,98423.44
2024-02-06T14:39:51.945Z,98417.50
2024-02-06T14:42:18.489Z,98385.28
2024-02-06T14:44:51.361Z,98390.28
2024-02-06T14:47:19.239Z,98393.56
2024-02-06T14:49:46.063Z,98381.88
2024-02-06T14:52:12.826Z,98399.75
2024-02-06T14:54:40.799Z,98394.06
2024-02-06T14:57:07.449Z,98392.28
2024-02-06T14:59:34.208Z,98394.50
2024-02-06T15:02:00.793Z,98382.31
2024-02-06T15:04:27.422Z,98383.81
2024-02-06T15:06:54.072Z,98374.56
2024-02-06T15:09:20.757Z,98351.03
2024-02-06T15:11:47.382Z,98360.91
2024-02-06T15:14:13.895Z,98355.34
2024-02-06T15:16:41.483Z,98362.50
2024-02-06T15:19:09.572Z,98359.25
2024-02-06T15:21:36.728Z,98366.38
2024-02-06T15:24:03.653Z,98362.16
2024-02-06T15:26:34.973Z,98355.53
2024-02-06T15:29:02.243Z,98344.28
2024-02-06T15:31:30.148Z,98358.94
2024-02-06T15:33:57.106Z,98328.53
2024-02-06T15:36:23.786Z,98351.13
2024-02-06T15:38:50.346Z,98337.59
2024-02-06T15:41:17.337Z,98334.97
2024-02-06T15:43:44.272Z,98327.78
2024-02-06T15:46:12.273Z,98313.97
2024-02-06T15:48:46.683Z,98284.56
2024-02-06T15:51:13.752Z,98323.66
2024-02-06T15:53:40.982Z,98303.06
2024-02-06T15:56:07.747Z,98317.78
2024-02-06T15:58:34.414Z,98299.19
2024-02-06T16:01:01.540Z,98300.50
2024-02-06T16:03:28.182Z,98294.63
2024-02-06T16:05:54.751Z,98290.56
2024-02-06T16:08:21.663Z,98310.22
2024-02-06T16:10:48.571Z,98290.25
2024-02-06T16:13:15.227Z,98309.56
2024-02-06T16:15:42.028Z,98288.50
2024-02-06T16:18:09.309Z,98292.13
2024-02-06T16:20:36.148Z,98291.78
2024-02-06T16:23:03.101Z,98292.66
2024-02-06T16:25:30.416Z,98298.66
2024-02-06T16:27:57.072Z,98296.69
2024-02-06T16:30:23.847Z,98293.03
2024-02-06T16:32:50.584Z,98286.78
2024-02-06T16:35:17.399Z,98284.56
2024-02-06T16:37:46.010Z,98264.03
2024-02-06T16:40:14.558Z,98271.59
2024-02-06T16:42:44.573Z,98269.59
2024-02-06T16:45:11.776Z,98269.41
2024-02-06T16:47:38.348Z,98282.69
2024-02-06T16:50:05.912Z,98277.91
2024-02-06T16:52:32.807Z,98272.06
2024-02-06T16:54:59.378Z,98290.94
2024-02-06T16:57:25.928Z,98270.28
2024-02-06T16:59:52.454Z,98296.06
2024-02-06T17:02:20.899Z,98294.53
2024-02-06T17:04:47.501Z,98277.22
2024-02-06T17:07:14.206Z,98287.34
2024-02-06T17:09:40.793Z,98267.25
2024-02-06T17:12:07.578Z,98286.50
2024-02-06T17:14:34.329Z,98292.38
2024-02-06T17:17:00.836Z,98287.44
2024-02-06T17:19:28.210Z,98281.78
2024-02-06T17:21:54.822Z,98306.28
2024-02-06T17:24:21.421Z,98302.38
2024-02-06T17:26:48.239Z,98301.47
2024-02-06T17:29:15.038Z,98274.31
2024-02-06T17:31:41.904Z,98297.72
2024-02-06T17:34:08.745Z,98290.66
2024-02-06T17:36:39.428Z,98290.88
2024-02-06T17:39:06.387Z,98279.72
2024-02-06T17:41:33.021Z,98270.47
2024-02-06T17:43:59.602Z,98271.16
2024-02-06T17:46:26.218Z,98275.22
2024-02-06T17:48:52.967Z,98276.56
2024-02-06T17:51:19.792Z,98278.88
2024-02-06T17:53:46.404Z,98262.84
2024-02-06T17:56:12.988Z,98287.00
2024-02-06T17:58:42.875Z,98266.47
2024-02-06T18:01:11.064Z,98235.13
2024-02-06T18:03:37.701Z,98255.16
2024-02-06T18:06:04.415Z,98240.53
2024-02-06T18:08:31.141Z,98244.91
2024-02-06T18:10:57.902Z,98264.03
2024-02-06T18:13:24.426Z,98251.19
2024-02-06T18:15:51.028Z,98257.03
2024-02-06T18:18:18.335Z,98227.47
2024-02-06T18:20:46.273Z,98223.00
2024-02-06T18:23:14.585Z,98219.75
2024-02-06T18:25:41.276Z,98204.47
2024-02-06T18:28:09.099Z,98198.94
2024-02-06T18:30:35.660Z,98182.53
2024-02-06T18:33:02.260Z,98186.16
2024-02-06T18:35:30.489Z,98204.25
2024-02-06T18:37:58.701Z,98181.13
2024-02-06T18:40:25.411Z,98181.47
2024-02-06T18:42:51.997Z,98173.13
2024-02-06T18:45:18.625Z,98164.81
2024-02-06T18:47:45.220Z,98166.84
2024-02-06T18:50:11.933Z,98161.19
2024-02-06T18:52:39.681Z,98179.00
2024-02-06T18:55:10.467Z,98176.28
2024-02-06T18:57:41.734Z,98149.16
2024-02-06T19:00:09.029Z,98162.47
2024-02-06T19:02:37.073Z,98159.97
2024-02-06T19:05:05.406Z,98190.34
2024-02-06T19:07:32.214Z,98174.97
2024-02-06T19:09:58.797Z,98168.72
2024-02-06T19:12:25.377Z,98151.94
2024-02-06T19:14:51.957Z,98151.84
2024-02-06T19:17:18.786Z,98149.97
2024-02-06T19:19:46.450Z,98154.56
2024-02-06T19:22:13.213Z,98175.53
2024-02-06T19:24:42.936Z,98158.94
2024-02-06T19:27:09.419Z,98165.09
2024-02-06T19:29:36.027Z,98163.31
2024-02-06T19:32:06.439Z,98156.22
2024-02-06T19:34:34.695Z,98153.81
2024-02-06T19:37:01.912Z,98165.38
2024-02-06T19:39:28.546Z,98162.19
2024-02-06T19:41:56.489Z,98162.47
2024-02-06T19:44:23.267Z,98157.06
2024-02-06T19:46:50.494Z,98138.88
2024-02-06T19:49:17.198Z,98150.25
2024-02-06T19:51:43.976Z,98141.03
2024-02-06T19:54:11.135Z,98157.53
2024-02-06T19:56:41.626Z,98152.03
2024-02-06T19:59:08.913Z,98167.13
2024-02-06T20:01:35.600Z,98150.25
2024-02-06T20:04:02.194Z,98140.75
2024-02-06T20:06:31.146Z,98155.09
2024-02-06T20:09:02.567Z,98143.94
2024-02-06T20:11:36.764Z,98148.47
2024-02-06T20:14:03.320Z,98156.53
2024-02-06T20:16:30.196Z,98157.72
2024-02-06T20:18:56.830Z,98159.31
2024-02-06T20:21:27.336Z,98192.59
2024-02-06T20:23:53.964Z,98152.59
2024-02-06T20:26:20.487Z,98153.06
2024-02-06T20:28:47.104Z,98152.38
2024-02-06T20:31:13.795Z,98148.66
2024-02-06T20:33:40.474Z,98138.53
2024-02-06T20:36:07.117Z,98149.41
2024-02-06T20:38:33.678Z,98138.06
2024-02-06T20:41:00.238Z,98122.19
2024-02-06T20:43:26.785Z,98133.66
2024-02-06T20:45:53.330Z,98140.38
2024-02-06T20:48:20.911Z,98139.06
2024-02-06T20:50:47.705Z,98130.13
2024-02-06T20:53:14.426Z,98125.94
2024-02-06T20:55:41.048Z,98132.72
2024-02-06T20:58:08.083Z,98131.78
2024-02-06T21:00:34.636Z,98137.19
2024-02-06T21:03:04.106Z,98110.34
2024-02-06T21:05:31.178Z,98122.94
2024-02-06T21:07:58.117Z,98127.50
2024-02-06T21:10:24.687Z,98128.03
2024-02-06T21:12:51.974Z,98127.31
2024-02-06T21:15:20.361Z,98119.59
2024-02-06T21:17:47.109Z,98116.31
2024-02-06T21:20:14.272Z,98104.94
2024-02-06T21:22:41.113Z,98123.00
2024-02-06T21:25:08.281Z,98119.38
2024-02-06T21:27:35.407Z,98117.31
2024-02-06T21:30:02.582Z,98106.22
2024-02-06T21:32:29.575Z,98125.31
2024-02-06T21:34:57.180Z,98112.44
2024-02-06T21:37:24.234Z,98106.13
2024-02-06T21:39:56.190Z,98109.50
2024-02-06T21:42:23.637Z,98097.84
2024-02-06T21:44:50.206Z,98121.72
2024-02-06T21:47:16.821Z,98087.97
2024-02-06T21:49:44.221Z,98072.13
2024-02-06T21:52:11.599Z,98105.13
2024-02-06T21:54:38.482Z,98079.03
2024-02-06T21:57:05.531Z,98075.50
2024-02-06T21:59:32.165Z,98088.81
2024-02-06T22:01:59.080Z,98086.94
2024-02-06T22:04:25.689Z,98071.00
2024-02-06T22:06:52.439Z,98084.03
2024-02-06T22:09:19.618Z,98076.78
2024-02-06T22:11:46.424Z,98058.25
2024-02-06T22:14:13.646Z,98073.19
2024-02-06T22:16:43.410Z,98061.75
2024-02-06T22:19:10.149Z,98080.16
2024-02-06T22:21:37.554Z,98057.44
2024-02-06T22:24:05.075Z,98062.03
2024-02-06T22:26:31.856Z,98055.47
2024-02-06T22:28:58.434Z,98037.22
2024-02-06T22:31:25.270Z,98050.13
2024-02-06T22:33:52.290Z,98062.94
2024-02-06T22:36:19.043Z,98048.03
2024-02-06T22:38:47.912Z,98054.31
2024-02-06T22:41:14.492Z,98056.31
2024-02-06T22:43:41.108Z,98047.94
2024-02-06T22:46:07.729Z,98039.84
2024-02-06T22:48:34.334Z,98047.31
2024-02-06T22:51:00.876Z,98042.09
2024-02-06T22:53:27.420Z,98022.56
2024-02-06T22:55:54.128Z,98022.13
2024-02-06T22:58:20.751Z,98029.22
2024-02-06T23:00:47.574Z,98030.63
2024-02-06T23:03:14.218Z,98026.63
2024-02-06T23:05:40.776Z,98012.72
2024-02-06T23:08:07.790Z,98046.66
2024-02-06T23:10:34.408Z,98029.69
2024-02-06T23:13:01.016Z,98026.78
2024-02-06T23:15:28.187Z,98033.00
2024-02-06T23:17:55.027Z,98038.63
2024-02-06T23:20:21.686Z,98006.03
2024-02-06T23:22:48.333Z,98032.50
2024-02-06T23:25:15.327Z,98019.09
2024-02-06T23:27:41.921Z,98025.34
2024-02-06T23:30:09.467Z,98010.19
2024-02-06T23:32:36.131Z,98014.72
2024-02-06T23:35:04.815Z,98018.53
2024-02-06T23:37:31.497Z,98004.41
2024-02-06T23:39:58.462Z,98002.53
2024-02-06T23:42:25.339Z,98008.47
2024-02-06T23:44:51.889Z,98007.38
2024-02-06T23:47:18.416Z,97990.94
2024-02-06T23:49:45.189Z,97980.56
2024-02-06T23:52:11.957Z,97986.44
2024-02-06T23:54:38.579Z,97987.22
2024-02-06T23:57:05.444Z,97967.69
2024-02-06T23:59:32.313Z,97971.38
